createdAt,value
2023-03-04T00:01:01.461Z,156451.97
2023-03-04T00:03:29.520Z,156449.34
2023-03-04T00:05:56.843Z,156449.34
2023-03-04T00:08:24.602Z,156457.28
2023-03-04T00:10:52.111Z,156465.22
2023-03-04T00:13:22.073Z,156459.91
2023-03-04T00:15:49.625Z,156475.81
2023-03-04T00:18:17.376Z,156466.53
2023-03-04T00:20:44.673Z,156473.16
2023-03-04T00:23:12.283Z,156471.84
2023-03-04T00:25:41.926Z,156470.53
2023-03-04T00:28:11.274Z,156491.69
2023-03-04T00:30:39.423Z,156500.94
2023-03-04T00:33:07.016Z,156495.63
2023-03-04T00:35:34.506Z,156512.88
2023-03-04T00:38:01.613Z,156524.81
2023-03-04T00:40:29.492Z,156518.19
2023-03-04T00:42:56.722Z,156516.81
2023-03-04T00:45:24.468Z,156527.44
2023-03-04T00:47:52.312Z,156514.19
2023-03-04T00:50:20.076Z,156522.13
2023-03-04T00:52:47.350Z,156528.75
2023-03-04T00:55:14.946Z,156522.13
2023-03-04T00:57:42.297Z,156526.13
2023-03-04T01:00:10.749Z,156508.88
2023-03-04T01:02:38.086Z,156535.38
2023-03-04T01:05:07.149Z,156534.06
2023-03-04T01:07:34.455Z,156553.94
2023-03-04T01:10:02.354Z,156527.44
2023-03-04T01:12:29.712Z,156536.69
2023-03-04T01:14:57.255Z,156544.63
2023-03-04T01:17:24.523Z,156538.00
2023-03-04T01:19:52.330Z,156528.75
2023-03-04T01:22:20.658Z,156555.25
2023-03-04T01:24:48.910Z,156557.88
2023-03-04T01:27:16.205Z,156546.00
2023-03-04T01:29:44.677Z,156552.56
2023-03-04T01:32:12.162Z,156527.44
2023-03-04T01:34:39.896Z,156528.75
2023-03-04T01:37:07.062Z,156548.63
2023-03-04T01:39:34.677Z,156535.38
2023-03-04T01:42:02.387Z,156502.25
2023-03-04T01:44:30.042Z,156514.19
2023-03-04T01:46:57.489Z,156519.50
2023-03-04T01:49:25.538Z,156516.81
2023-03-04T01:51:54.479Z,156532.75
2023-03-04T01:54:23.215Z,156523.44
2023-03-04T01:56:51.992Z,156515.50
2023-03-04T01:59:25.760Z,156514.19
2023-03-04T02:01:57.859Z,156532.75
2023-03-04T02:04:30.566Z,156534.06
2023-03-04T02:06:58.396Z,156532.75
2023-03-04T02:09:28.871Z,156524.81
2023-03-04T02:11:56.541Z,156504.94
2023-03-04T02:14:24.846Z,156532.75
2023-03-04T02:16:52.521Z,156536.69
2023-03-04T02:19:33.115Z,156520.81
2023-03-04T02:22:00.452Z,156540.69
2023-03-04T02:24:37.525Z,156557.88
2023-03-04T02:27:05.309Z,156553.94
2023-03-04T02:29:33.364Z,156555.25
2023-03-04T02:32:00.839Z,156556.56
2023-03-04T02:34:36.043Z,156579.06
2023-03-04T02:37:04.475Z,156573.78
2023-03-04T02:39:36.190Z,156564.50
2023-03-04T02:42:05.110Z,156556.56
2023-03-04T02:44:41.932Z,156564.50
2023-03-04T02:47:11.709Z,156573.78
2023-03-04T02:49:40.352Z,156581.72
2023-03-04T02:52:19.875Z,156572.44
2023-03-04T02:54:47.904Z,156594.97
2023-03-04T02:57:17.016Z,156597.63
2023-03-04T02:59:48.335Z,156597.63
2023-03-04T03:02:20.252Z,156598.94
2023-03-04T03:04:48.481Z,156608.19
2023-03-04T03:07:18.646Z,156608.19
2023-03-04T03:09:46.587Z,156597.63
2023-03-04T03:12:13.957Z,156593.63
2023-03-04T03:14:41.879Z,156610.84
2023-03-04T03:17:11.934Z,156597.63
2023-03-04T03:19:39.707Z,156609.53
2023-03-04T03:22:08.938Z,156598.94
2023-03-04T03:24:37.101Z,156618.78
2023-03-04T03:27:04.460Z,156605.56
2023-03-04T03:29:32.295Z,156620.13
2023-03-04T03:31:59.659Z,156629.38
2023-03-04T03:34:27.485Z,156617.47
2023-03-04T03:36:54.965Z,156642.63
2023-03-04T03:39:22.583Z,156642.63
2023-03-04T03:41:50.256Z,156646.63
2023-03-04T03:44:18.201Z,156667.81
2023-03-04T03:46:46.926Z,156662.50
2023-03-04T03:49:14.619Z,156677.06
2023-03-04T03:51:41.867Z,156689.00
2023-03-04T03:54:09.974Z,156682.38
2023-03-04T03:56:37.231Z,156700.94
2023-03-04T03:59:04.971Z,156698.25
2023-03-04T04:01:33.822Z,156706.19
2023-03-04T04:04:01.671Z,156715.50
2023-03-04T04:06:28.955Z,156714.19
2023-03-04T04:08:56.600Z,156719.44
2023-03-04T04:11:23.879Z,156730.06
2023-03-04T04:13:51.671Z,156726.06
2023-03-04T04:16:19.140Z,156727.38
2023-03-04T04:18:46.973Z,156728.75
2023-03-04T04:21:14.966Z,156726.06
2023-03-04T04:23:42.568Z,156731.38
2023-03-04T04:26:09.663Z,156745.94
2023-03-04T04:28:37.349Z,156752.56
2023-03-04T04:31:08.428Z,156753.88
2023-03-04T04:33:37.023Z,156732.69
2023-03-04T04:36:05.259Z,156744.63
2023-03-04T04:38:33.114Z,156747.25
2023-03-04T04:41:00.512Z,156763.19
2023-03-04T04:43:28.347Z,156757.88
2023-03-04T04:45:55.675Z,156739.31
2023-03-04T04:48:23.332Z,156748.63
2023-03-04T04:50:55.297Z,156742.00
2023-03-04T04:53:23.015Z,156771.16
2023-03-04T04:55:50.228Z,156749.94
2023-03-04T04:58:17.915Z,156760.50
2023-03-04T05:00:45.235Z,156768.47
2023-03-04T05:03:12.930Z,156769.81
2023-03-04T05:05:40.455Z,156768.47
2023-03-04T05:08:08.157Z,156764.50
2023-03-04T05:10:35.304Z,156771.16
2023-03-04T05:13:03.083Z,156781.72
2023-03-04T05:15:30.408Z,156769.81
2023-03-04T05:17:58.047Z,156776.47
2023-03-04T05:20:25.835Z,156788.34
2023-03-04T05:22:53.872Z,156798.97
2023-03-04T05:25:21.138Z,156793.66
2023-03-04T05:27:48.698Z,156793.66
2023-03-04T05:30:16.037Z,156801.59
2023-03-04T05:32:43.888Z,156806.91
2023-03-04T05:35:11.158Z,156797.66
2023-03-04T05:37:38.929Z,156792.34
2023-03-04T05:40:06.768Z,156813.53
2023-03-04T05:42:34.734Z,156816.16
2023-03-04T05:45:02.140Z,156825.47
2023-03-04T05:47:29.568Z,156814.84
2023-03-04T05:49:58.304Z,156818.84
2023-03-04T05:52:25.877Z,156824.13
2023-03-04T05:54:53.228Z,156825.47
2023-03-04T05:57:20.968Z,156816.16
2023-03-04T05:59:48.165Z,156809.53
2023-03-04T06:02:16.066Z,156825.47
2023-03-04T06:04:43.474Z,156836.06
2023-03-04T06:07:11.093Z,156822.78
2023-03-04T06:09:38.575Z,156838.69
2023-03-04T06:12:06.508Z,156836.06
2023-03-04T06:14:33.687Z,156836.06
2023-03-04T06:17:01.185Z,156812.22
2023-03-04T06:19:28.502Z,156828.13
2023-03-04T06:21:56.057Z,156841.38
2023-03-04T06:24:23.391Z,156836.06
2023-03-04T06:26:51.012Z,156837.38
2023-03-04T06:29:18.357Z,156841.38
2023-03-04T06:31:46.077Z,156844.00
2023-03-04T06:34:13.512Z,156840.06
2023-03-04T06:36:41.088Z,156848.00
2023-03-04T06:39:09.011Z,156828.13
2023-03-04T06:41:36.698Z,156830.75
2023-03-04T06:44:04.659Z,156849.31
2023-03-04T06:46:33.899Z,156846.69
2023-03-04T06:49:02.146Z,156837.38
2023-03-04T06:51:30.503Z,156849.31
2023-03-04T06:53:57.842Z,156849.31
2023-03-04T06:56:25.659Z,156867.88
2023-03-04T06:58:53.037Z,156851.94
2023-03-04T07:01:21.960Z,156878.47
2023-03-04T07:03:50.341Z,156881.09
2023-03-04T07:06:21.610Z,156877.16
2023-03-04T07:08:49.468Z,156895.72
2023-03-04T07:11:17.741Z,156878.47
2023-03-04T07:13:45.974Z,156878.47
2023-03-04T07:16:18.897Z,156900.97
2023-03-04T07:18:47.665Z,156885.09
2023-03-04T07:21:16.223Z,156878.47
2023-03-04T07:23:44.056Z,156897.03
2023-03-04T07:26:12.012Z,156915.56
2023-03-04T07:28:39.634Z,156920.88
2023-03-04T07:31:12.227Z,156920.88
2023-03-04T07:33:39.741Z,156930.13
2023-03-04T07:36:07.555Z,156930.13
2023-03-04T07:38:34.883Z,156942.09
2023-03-04T07:41:03.288Z,156954.03
2023-03-04T07:43:30.562Z,156940.75
2023-03-04T07:46:02.334Z,156965.97
2023-03-04T07:48:30.032Z,156959.34
2023-03-04T07:51:11.344Z,156960.66
2023-03-04T07:53:40.548Z,156964.59
2023-03-04T07:56:09.250Z,156979.19
2023-03-04T07:58:36.546Z,156960.66
2023-03-04T08:01:10.624Z,156973.91
2023-03-04T08:03:37.865Z,156969.91
2023-03-04T08:06:07.602Z,156960.66
2023-03-04T08:08:35.258Z,156984.50
2023-03-04T08:11:07.547Z,156984.50
2023-03-04T08:13:35.290Z,156983.19
2023-03-04T08:16:04.100Z,156981.88
2023-03-04T08:18:31.507Z,156968.59
2023-03-04T08:20:59.376Z,156983.19
2023-03-04T08:23:26.920Z,156993.81
2023-03-04T08:25:54.868Z,156992.44
2023-03-04T08:28:22.308Z,157018.97
2023-03-04T08:30:53.615Z,157034.88
2023-03-04T08:33:20.945Z,157029.59
2023-03-04T08:35:48.957Z,157025.59
2023-03-04T08:38:16.302Z,157028.28
2023-03-04T08:40:43.938Z,157017.66
2023-03-04T08:43:11.375Z,157036.25
2023-03-04T08:45:39.307Z,157045.50
2023-03-04T08:48:06.912Z,157026.94
2023-03-04T08:50:34.660Z,157034.88
2023-03-04T08:53:01.980Z,157042.88
2023-03-04T08:55:29.564Z,157048.16
2023-03-04T08:57:56.982Z,157056.09
2023-03-04T09:00:24.592Z,157070.72
2023-03-04T09:02:52.080Z,157095.88
2023-03-04T09:05:19.635Z,157094.56
2023-03-04T09:07:47.475Z,157095.88
2023-03-04T09:10:15.256Z,157106.53
2023-03-04T09:12:42.683Z,157103.84
2023-03-04T09:15:12.091Z,157156.91
2023-03-04T09:17:40.422Z,157143.66
2023-03-04T09:20:10.482Z,157133.00
2023-03-04T09:22:38.863Z,157144.97
2023-03-04T09:25:12.052Z,157127.75
2023-03-04T09:27:40.733Z,157113.16
2023-03-04T09:30:09.500Z,157138.31
2023-03-04T09:32:37.181Z,157131.69
2023-03-04T09:35:05.510Z,157118.44
2023-03-04T09:37:33.415Z,157151.59
2023-03-04T09:40:00.958Z,157138.31
2023-03-04T09:42:34.876Z,157162.25
2023-03-04T09:45:04.377Z,157159.56
2023-03-04T09:47:34.677Z,157158.22
2023-03-04T09:50:06.959Z,157135.69
2023-03-04T09:52:52.896Z,157117.09
2023-03-04T09:55:28.935Z,157091.94
2023-03-04T09:58:34.145Z,157114.47
2023-03-04T10:01:31.277Z,157111.78
2023-03-04T10:04:00.786Z,157125.06
2023-03-04T10:06:29.089Z,157133.00
2023-03-04T10:09:00.427Z,157134.38
2023-03-04T10:11:43.289Z,157117.09
2023-03-04T10:14:22.479Z,157111.78
2023-03-04T10:16:56.418Z,157103.84
2023-03-04T10:19:45.384Z,157086.63
2023-03-04T10:22:19.906Z,157087.94
2023-03-04T10:24:48.014Z,157102.53
2023-03-04T10:27:17.869Z,157090.56
2023-03-04T10:29:46.845Z,157098.56
2023-03-04T10:32:18.379Z,157114.47
2023-03-04T10:34:46.176Z,157087.94
2023-03-04T10:37:14.172Z,157068.03
2023-03-04T10:39:42.594Z,157062.72
2023-03-04T10:42:16.580Z,157068.03
2023-03-04T10:44:52.512Z,157052.13
2023-03-04T10:47:21.353Z,157066.72
2023-03-04T10:49:57.676Z,157061.41
2023-03-04T10:52:33.054Z,157054.78
2023-03-04T10:55:16.406Z,157052.13
2023-03-04T10:57:45.944Z,157040.19
2023-03-04T11:00:19.274Z,157046.81
2023-03-04T11:02:47.855Z,157049.50
2023-03-04T11:05:15.688Z,157060.09
2023-03-04T11:07:59.336Z,157050.81
2023-03-04T11:10:30.564Z,157038.88
2023-03-04T11:13:07.787Z,157029.59
2023-03-04T11:15:48.946Z,157032.25
2023-03-04T11:18:18.305Z,157000.44
2023-03-04T11:20:49.641Z,156960.66
2023-03-04T11:23:23.902Z,156977.88
2023-03-04T11:25:58.135Z,157009.72
2023-03-04T11:28:40.474Z,156991.13
2023-03-04T11:31:17.062Z,156997.75
2023-03-04T11:33:57.833Z,156997.75
2023-03-04T11:36:51.167Z,156987.19
2023-03-04T11:39:33.343Z,156975.22
2023-03-04T11:42:49.041Z,156969.91
2023-03-04T11:45:53.901Z,156969.91
2023-03-04T11:48:37.597Z,156983.19
2023-03-04T11:51:19.755Z,156977.88
2023-03-04T11:53:56.282Z,156950.03
2023-03-04T11:56:35.795Z,156959.34
2023-03-04T11:59:35.889Z,156977.88
2023-03-04T12:02:19.613Z,156993.81
2023-03-04T12:05:19.791Z,157007.03
2023-03-04T12:08:06.521Z,157018.97
2023-03-04T12:10:52.637Z,157033.56
2023-03-04T12:13:42.606Z,157048.16
2023-03-04T12:16:47.218Z,157098.56
2023-03-04T12:19:39.938Z,157141.00
2023-03-04T12:22:41.613Z,157186.09
2023-03-04T12:25:17.697Z,157208.63
2023-03-04T12:27:51.999Z,157243.13
2023-03-04T12:30:53.693Z,157260.41
2023-03-04T12:33:24.749Z,157277.63
2023-03-04T12:36:04.976Z,157285.59
2023-03-04T12:38:44.915Z,157285.59
2023-03-04T12:41:35.619Z,157325.41
2023-03-04T12:44:22.154Z,157347.97
2023-03-04T12:47:11.814Z,157377.16
2023-03-04T12:49:57.973Z,157401.09
2023-03-04T12:52:47.306Z,157426.28
2023-03-04T12:55:17.694Z,157443.56
2023-03-04T12:57:46.011Z,157467.44
2023-03-04T13:00:13.762Z,157471.44
2023-03-04T13:03:00.786Z,157474.06
2023-03-04T13:05:37.345Z,157496.63
2023-03-04T13:08:31.199Z,157478.09
2023-03-04T13:11:27.580Z,157474.06
2023-03-04T13:14:03.396Z,157468.75
2023-03-04T13:16:33.472Z,157455.53
2023-03-04T13:19:01.487Z,157450.19
2023-03-04T13:21:31.998Z,157434.22
2023-03-04T13:24:32.064Z,157252.47
2023-03-04T13:26:59.486Z,156960.66
2023-03-04T13:29:27.255Z,156824.13
2023-03-04T13:32:05.862Z,156745.94
2023-03-04T13:34:48.823Z,156685.00
2023-03-04T13:37:36.387Z,156685.00
2023-03-04T13:40:24.508Z,156695.63
2023-03-04T13:42:51.854Z,156690.31
2023-03-04T13:45:39.397Z,156700.94
2023-03-04T13:48:24.527Z,156718.13
2023-03-04T13:50:52.729Z,156728.75
2023-03-04T13:53:47.206Z,156791.03
2023-03-04T13:56:24.040Z,156814.84
2023-03-04T13:59:01.536Z,156804.22
2023-03-04T14:01:33.855Z,156838.69
2023-03-04T14:04:05.588Z,156877.16
2023-03-04T14:06:33.859Z,156911.59
2023-03-04T14:09:15.013Z,156942.09
2023-03-04T14:11:43.756Z,157001.75
2023-03-04T14:14:13.992Z,157040.19
2023-03-04T14:16:48.767Z,157086.63
2023-03-04T14:19:25.424Z,157126.44
2023-03-04T14:21:53.177Z,157170.19
2023-03-04T14:24:22.434Z,157200.69
2023-03-04T14:26:50.794Z,157237.81
2023-03-04T14:29:26.953Z,157263.03
2023-03-04T14:31:56.593Z,157281.63
2023-03-04T14:34:32.315Z,157280.31
2023-03-04T14:37:00.447Z,157275.00
2023-03-04T14:39:30.801Z,157272.31
2023-03-04T14:42:04.798Z,157280.31
2023-03-04T14:44:36.268Z,157292.22
2023-03-04T14:47:30.400Z,157297.56
2023-03-04T14:49:57.706Z,157300.19
2023-03-04T14:52:48.516Z,157292.22
2023-03-04T14:55:15.720Z,157293.53
2023-03-04T14:57:45.428Z,157301.56
2023-03-04T15:00:27.252Z,157281.63
2023-03-04T15:02:57.541Z,157277.63
2023-03-04T15:05:28.794Z,157286.91
2023-03-04T15:08:29.459Z,157288.28
2023-03-04T15:11:02.572Z,157286.91
2023-03-04T15:13:42.545Z,157263.03
2023-03-04T15:16:11.790Z,157247.13
2023-03-04T15:18:40.448Z,157213.94
2023-03-04T15:21:19.928Z,157223.22
2023-03-04T15:23:47.753Z,157148.97
2023-03-04T15:26:15.087Z,157074.69
2023-03-04T15:28:43.486Z,157040.19
2023-03-04T15:31:21.581Z,156991.13
2023-03-04T15:33:49.420Z,156975.22
2023-03-04T15:36:19.251Z,156947.41
2023-03-04T15:38:50.148Z,156928.81
2023-03-04T15:41:27.142Z,156911.59
2023-03-04T15:43:55.278Z,156910.28
2023-03-04T15:46:23.132Z,156900.97
2023-03-04T15:48:50.800Z,156881.09
2023-03-04T15:51:21.130Z,156854.63
2023-03-04T15:53:54.294Z,156842.69
2023-03-04T15:56:27.172Z,156840.06
2023-03-04T15:59:15.407Z,156818.84
2023-03-04T16:01:43.064Z,156816.16
2023-03-04T16:04:18.302Z,156800.28
2023-03-04T16:06:47.664Z,156776.47
2023-03-04T16:09:17.228Z,156756.56
2023-03-04T16:11:47.669Z,156724.75
2023-03-04T16:14:16.227Z,156710.19
2023-03-04T16:16:44.526Z,156685.00
2023-03-04T16:19:12.255Z,156665.16
2023-03-04T16:21:40.240Z,156655.88
2023-03-04T16:24:14.967Z,156640.00
2023-03-04T16:26:42.336Z,156626.75
2023-03-04T16:29:10.205Z,156592.31
2023-03-04T16:31:37.605Z,156605.56
2023-03-04T16:34:05.396Z,156591.00
2023-03-04T16:36:32.920Z,156580.38
2023-03-04T16:39:03.814Z,156577.75
2023-03-04T16:41:31.398Z,156569.81
2023-03-04T16:44:00.985Z,156571.13
2023-03-04T16:46:28.890Z,156564.50
2023-03-04T16:48:56.711Z,156549.94
2023-03-04T16:51:24.311Z,156564.50
2023-03-04T16:53:55.009Z,156563.19
2023-03-04T16:56:22.940Z,156547.31
2023-03-04T16:58:50.596Z,156542.00
2023-03-04T17:01:29.041Z,156538.00
2023-03-04T17:03:56.922Z,156506.25
2023-03-04T17:06:25.362Z,156526.13
2023-03-04T17:08:53.055Z,156508.88
2023-03-04T17:11:22.437Z,156504.94
2023-03-04T17:13:50.652Z,156482.41
2023-03-04T17:16:18.538Z,156469.19
2023-03-04T17:18:46.368Z,156467.84
2023-03-04T17:21:22.632Z,156451.97
2023-03-04T17:23:50.788Z,156442.72
2023-03-04T17:26:21.190Z,156429.47
2023-03-04T17:28:52.010Z,156420.22
2023-03-04T17:31:20.709Z,156422.84
2023-03-04T17:33:49.179Z,156436.09
2023-03-04T17:36:18.608Z,156428.16
2023-03-04T17:38:46.791Z,156421.53
2023-03-04T17:41:17.566Z,156412.25
2023-03-04T17:43:49.791Z,156395.06
2023-03-04T17:46:20.529Z,156375.22
2023-03-04T17:48:49.001Z,156361.97
2023-03-04T17:51:16.285Z,156364.66
2023-03-04T17:53:43.999Z,156348.72
2023-03-04T17:56:12.187Z,156335.50
2023-03-04T17:58:40.211Z,156335.50
2023-03-04T18:01:16.307Z,156320.94
2023-03-04T18:03:44.199Z,156311.69
2023-03-04T18:06:12.124Z,156305.06
2023-03-04T18:08:39.866Z,156277.28
2023-03-04T18:11:08.074Z,156301.09
2023-03-04T18:13:46.531Z,156303.75
2023-03-04T18:16:16.513Z,156291.84
2023-03-04T18:18:45.331Z,156299.78
2023-03-04T18:21:13.889Z,156294.53
2023-03-04T18:23:47.611Z,156245.56
2023-03-04T18:26:24.942Z,156172.78
2023-03-04T18:28:57.233Z,156229.66
2023-03-04T18:31:35.913Z,156176.78
2023-03-04T18:34:16.536Z,156162.25
2023-03-04T18:36:54.220Z,156223.03
2023-03-04T18:39:31.209Z,156199.25
2023-03-04T18:42:02.074Z,156126.50
2023-03-04T18:44:32.567Z,156238.97
2023-03-04T18:47:03.864Z,156115.94
2023-03-04T18:49:32.488Z,156126.50
2023-03-04T18:52:04.399Z,156114.63
2023-03-04T18:54:32.517Z,156170.16
2023-03-04T18:57:18.830Z,156142.41
2023-03-04T19:00:00.420Z,156086.88
2023-03-04T19:05:53.062Z,156110.63
2023-03-04T19:08:23.611Z,156102.72
2023-03-04T19:10:55.938Z,156115.94
2023-03-04T19:13:30.709Z,156060.41
2023-03-04T19:15:59.626Z,156053.78
2023-03-04T19:18:29.460Z,156127.84
2023-03-04T19:21:00.043Z,156090.78
2023-03-04T19:23:30.835Z,156089.50
2023-03-04T19:25:58.939Z,156027.34
2023-03-04T19:28:29.616Z,156020.75
2023-03-04T19:31:27.685Z,156086.88
2023-03-04T19:34:03.526Z,156037.94
2023-03-04T19:36:34.225Z,156006.19
2023-03-04T19:39:09.809Z,156094.78
2023-03-04T19:41:38.034Z,156094.78
2023-03-04T19:44:05.692Z,156057.78
2023-03-04T19:46:46.952Z,155969.19
2023-03-04T19:49:14.923Z,155974.50
2023-03-04T19:51:46.347Z,156030.03
2023-03-04T19:54:17.370Z,155982.44
2023-03-04T19:56:45.558Z,155952.00
2023-03-04T19:59:16.905Z,155946.75
2023-03-04T20:01:46.126Z,155974.50
2023-03-04T20:04:16.537Z,155920.31
2023-03-04T20:06:49.947Z,155916.31
2023-03-04T20:09:20.487Z,155938.81
2023-03-04T20:11:58.153Z,155924.28
2023-03-04T20:14:28.751Z,155904.47
2023-03-04T20:17:02.989Z,155887.25
2023-03-04T20:19:31.854Z,155888.56
2023-03-04T20:22:09.233Z,155875.34
2023-03-04T20:24:40.446Z,155892.56
2023-03-04T20:27:11.516Z,155862.19
2023-03-04T20:29:39.334Z,155885.94
2023-03-04T20:32:07.245Z,155937.47
2023-03-04T20:34:37.000Z,155934.84
2023-03-04T20:37:04.619Z,155932.22
2023-03-04T20:39:32.989Z,155938.81
2023-03-04T20:42:04.097Z,155922.94
2023-03-04T20:44:31.876Z,155916.31
2023-03-04T20:47:00.462Z,155905.78
2023-03-04T20:49:28.770Z,155900.47
2023-03-04T20:52:00.977Z,155893.88
2023-03-04T20:54:28.763Z,155867.44
2023-03-04T20:56:56.823Z,155858.19
2023-03-04T20:59:24.809Z,155871.41
2023-03-04T21:01:52.714Z,155874.03
2023-03-04T21:04:20.966Z,155866.13
2023-03-04T21:06:51.799Z,155848.97
2023-03-04T21:09:21.682Z,155842.34
2023-03-04T21:11:51.841Z,155834.44
2023-03-04T21:14:23.838Z,155835.75
2023-03-04T21:17:01.160Z,155838.38
2023-03-04T21:19:33.305Z,155833.06
2023-03-04T21:22:02.419Z,155819.91
2023-03-04T21:24:34.211Z,155829.16
2023-03-04T21:27:04.734Z,155817.25
2023-03-04T21:29:32.802Z,155821.22
2023-03-04T21:32:27.463Z,155800.09
2023-03-04T21:34:56.015Z,155797.41
2023-03-04T21:37:24.876Z,155804.03
2023-03-04T21:39:52.706Z,155792.16
2023-03-04T21:42:20.662Z,155797.41
2023-03-04T21:44:50.135Z,155785.56
2023-03-04T21:47:22.812Z,155773.66
2023-03-04T21:49:50.757Z,155761.75
2023-03-04T21:52:20.806Z,155741.94
2023-03-04T21:54:48.478Z,155744.59
2023-03-04T21:57:16.528Z,155747.22
2023-03-04T21:59:44.086Z,155732.72
2023-03-04T22:02:20.988Z,155732.72
2023-03-04T22:04:48.740Z,155712.88
2023-03-04T22:07:16.545Z,155703.66
2023-03-04T22:09:44.023Z,155702.34
2023-03-04T22:12:11.938Z,155693.06
2023-03-04T22:14:39.430Z,155691.75
2023-03-04T22:17:07.280Z,155673.31
2023-03-04T22:19:34.972Z,155662.72
2023-03-04T22:22:02.965Z,155657.44
2023-03-04T22:24:30.325Z,155645.59
2023-03-04T22:27:00.027Z,155641.59
2023-03-04T22:29:27.606Z,155640.28
2023-03-04T22:31:55.347Z,155624.41
2023-03-04T22:34:23.211Z,155637.63
2023-03-04T22:36:50.886Z,155623.09
2023-03-04T22:39:19.611Z,155627.09
2023-03-04T22:41:47.741Z,155611.25
2023-03-04T22:44:15.109Z,155613.88
2023-03-04T22:46:43.867Z,155605.97
2023-03-04T22:49:13.277Z,155603.28
2023-03-04T22:51:43.944Z,155596.72
2023-03-04T22:54:16.131Z,155590.13
2023-03-04T22:56:44.358Z,155594.06
2023-03-04T22:59:12.012Z,155569.00
2023-03-04T23:01:41.056Z,155584.84
2023-03-04T23:04:08.782Z,155579.56
2023-03-04T23:06:37.893Z,155580.84
2023-03-04T23:09:05.312Z,155579.56
2023-03-04T23:11:35.706Z,155570.31
2023-03-04T23:14:06.622Z,155570.31
2023-03-04T23:16:42.634Z,155578.25
2023-03-04T23:19:14.348Z,155563.72
2023-03-04T23:21:42.894Z,155569.00
2023-03-04T23:24:12.008Z,155561.06
2023-03-04T23:26:41.405Z,155553.13
2023-03-04T23:29:11.967Z,155550.53
2023-03-04T23:31:39.888Z,155547.91
2023-03-04T23:34:07.315Z,155518.81
2023-03-04T23:36:37.417Z,155518.81
2023-03-04T23:39:06.537Z,155503.00
2023-03-04T23:41:35.040Z,155518.81
2023-03-04T23:44:02.773Z,155505.63
2023-03-04T23:46:30.650Z,155471.34
2023-03-04T23:48:58.401Z,155484.50
2023-03-04T23:51:28.450Z,155489.78
2023-03-04T23:53:56.450Z,155485.88
2023-03-04T23:56:26.598Z,155472.66
2023-03-04T23:58:54.151Z,155472.66
